Time;durP1;ratioP1;P1;durP2;ratioP2;P2;SDS_P1;SDS_P2;PMS_P1;PMS_P2;Temp;Humidity;BMP_temperature;BMP_pressure;BME280_temperature;BME280_humidity;BME280_pressure;Samples;Min_cycle;Max_cycle;Signal;HPM_P1;HPM_P2
2023/07/26 00:01:43;;;;;;;5.75;3.78;;;15.00;84.80;;;13.86;100.00;95424.72;4985170;28;20429;-72
2023/07/26 00:04:09;;;;;;;4.15;3.53;;;15.00;84.80;;;13.87;100.00;95429.00;4986364;28;20427;-73
2023/07/26 00:06:35;;;;;;;5.68;3.80;;;15.00;85.10;;;13.86;100.00;95423.94;4987155;28;20100;-71
2023/07/26 00:09:01;;;;;;;5.35;4.38;;;15.00;84.50;;;13.83;100.00;95435.75;4983178;28;20117;-72
2023/07/26 00:11:26;;;;;;;4.90;3.92;;;14.90;84.60;;;13.79;100.00;95434.56;4984648;28;20034;-71
2023/07/26 00:13:52;;;;;;;7.15;4.20;;;14.80;84.70;;;13.81;100.00;95439.66;4953362;28;20034;-72
2023/07/26 00:16:21;;;;;;;5.72;4.38;;;14.90;84.80;;;13.80;100.00;95441.47;4981476;28;20041;-72
2023/07/26 00:18:46;;;;;;;6.45;3.70;;;14.90;84.80;;;13.82;100.00;95446.56;4969713;28;20107;-72
2023/07/26 00:21:12;;;;;;;3.70;3.22;;;14.90;84.60;;;13.83;100.00;95450.81;4986058;28;20066;-72
2023/07/26 00:23:38;;;;;;;4.85;3.92;;;15.00;84.50;;;13.82;100.00;95450.00;4986325;28;20113;-71
2023/07/26 00:26:04;;;;;;;5.57;3.55;;;15.00;84.30;;;13.83;100.00;95446.34;4968737;28;20201;-71
2023/07/26 00:28:29;;;;;;;4.55;3.63;;;15.00;84.30;;;13.84;100.00;95453.22;4989784;28;20070;-72
2023/07/26 00:30:55;;;;;;;3.92;3.30;;;15.00;84.00;;;13.84;100.00;95452.44;4993552;28;20026;-72
2023/07/26 00:33:21;;;;;;;5.10;3.42;;;15.00;83.80;;;13.85;100.00;95454.03;4997589;28;20045;-71
2023/07/26 00:35:47;;;;;;;5.05;3.58;;;15.10;83.80;;;13.85;100.00;95454.03;4968737;28;20035;-72
2023/07/26 00:38:12;;;;;;;4.25;3.75;;;15.00;83.80;;;13.81;100.00;95458.97;4995235;28;20065;-72
2023/07/26 00:40:38;;;;;;;5.55;3.65;;;14.90;84.10;;;13.76;100.00;95461.47;4985779;28;20117;-73
2023/07/26 00:43:05;;;;;;;5.70;3.60;;;14.80;84.10;;;13.75;100.00;95465.13;4968173;28;20034;-72
2023/07/26 00:45:31;;;;;;;5.95;3.92;;;14.90;84.30;;;13.73;100.00;95462.72;4969572;28;20042;-70
2023/07/26 00:47:57;;;;;;;6.55;3.90;;;14.80;84.00;;;13.73;100.00;95472.47;4953947;28;20030;-71
2023/07/26 00:50:23;;;;;;;5.90;4.03;;;14.80;84.30;;;13.71;100.00;95472.72;4955333;28;20117;-70
2023/07/26 00:52:49;;;;;;;7.97;4.30;;;14.80;84.30;;;13.70;100.00;95472.94;4984225;28;20030;-70
2023/07/26 00:55:15;;;;;;;6.45;4.35;;;14.70;84.50;;;13.64;100.00;95468.56;4968299;28;20129;-71
2023/07/26 00:57:42;;;;;;;6.78;3.97;;;14.60;84.50;;;13.62;100.00;95470.63;4984661;28;20069;-71
2023/07/26 01:00:08;;;;;;;5.80;4.10;;;14.70;84.20;;;13.57;100.00;95465.97;4967886;28;20521;-70
2023/07/26 01:02:34;;;;;;;5.60;4.53;;;14.60;84.50;;;13.57;100.00;95478.38;4950806;28;20097;-71
2023/07/26 01:05:00;;;;;;;6.82;4.63;;;14.60;84.60;;;13.55;100.00;95485.72;4984377;28;20035;-72
2023/07/26 01:07:59;;;;;;;6.85;4.82;;;14.60;84.60;;;13.51;100.00;95476.63;4970770;28;20120;-71
2023/07/26 01:10:55;;;;;;;7.75;4.75;;;14.60;84.50;;;13.44;100.00;95487.28;4985098;28;20038;-71
2023/07/26 01:13:31;;;;;;;9.77;5.82;;;14.50;85.10;;;13.43;100.00;95483.03;4968280;28;20066;-71
2023/07/26 01:15:56;;;;;;;7.22;5.45;;;14.50;85.10;;;13.45;100.00;95492.34;4988794;28;20230;-71
2023/07/26 01:18:22;;;;;;;7.95;5.63;;;14.60;84.80;;;13.44;100.00;95487.28;4973167;28;20150;-71
2023/07/26 01:20:48;;;;;;;10.70;5.88;;;14.60;84.90;;;13.43;100.00;95497.06;4987718;28;20062;-71
2023/07/26 01:23:14;;;;;;;6.53;5.55;;;14.60;84.80;;;13.39;100.00;95495.88;4989580;28;20043;-71
2023/07/26 01:25:39;;;;;;;7.75;5.57;;;14.50;85.20;;;13.39;100.00;95503.00;4986288;28;20124;-71
2023/07/26 01:28:05;;;;;;;8.13;5.90;;;14.50;85.20;;;13.37;100.00;95495.31;4972739;28;20450;-71
2023/07/26 01:30:32;;;;;;;8.27;5.97;;;14.40;85.20;;;13.34;100.00;95501.00;4988070;28;20635;-71
2023/07/26 01:33:01;;;;;;;8.50;5.85;;;14.40;85.20;;;13.33;100.00;95496.75;4970360;28;20455;-69
2023/07/26 01:35:27;;;;;;;9.45;6.55;;;14.50;85.20;;;13.33;100.00;95502.03;4972234;28;20128;-71
2023/07/26 01:37:53;;;;;;;8.00;5.53;;;14.60;84.90;;;13.36;100.00;95514.81;4986486;28;20050;-71
2023/07/26 01:40:19;;;;;;;9.63;6.18;;;14.60;84.70;;;13.34;100.00;95519.47;4970169;28;20046;-70
2023/07/26 01:42:45;;;;;;;8.02;6.20;;;14.50;85.20;;;13.34;100.00;95506.28;4971477;28;20031;-71
2023/07/26 01:45:11;;;;;;;10.85;6.50;;;14.50;84.80;;;13.32;100.00;95516.25;4970233;28;20116;-72
2023/07/26 01:47:36;;;;;;;7.45;6.60;;;14.40;85.30;;;13.31;100.00;95517.28;4984693;28;20215;-71
2023/07/26 01:50:02;;;;;;;7.90;6.25;;;14.50;85.10;;;13.27;100.00;95510.84;4988924;28;20066;-71
2023/07/26 01:52:28;;;;;;;9.75;6.50;;;14.50;85.20;;;13.29;100.00;95514.06;4986218;28;20065;-71
2023/07/26 01:54:54;;;;;;;7.53;6.45;;;14.50;84.80;;;13.28;100.00;95506.38;4970992;28;20047;-71
2023/07/26 01:57:25;;;;;;;9.52;6.55;;;14.40;85.20;;;13.28;100.00;95511.66;4990130;28;20061;-72
2023/07/26 01:59:54;;;;;;;7.53;6.75;;;14.40;85.20;;;13.29;100.00;95521.97;5002251;28;20062;-71
2023/07/26 02:02:20;;;;;;;6.97;6.13;;;14.50;85.00;;;13.28;100.00;95512.44;4987001;28;20125;-71
2023/07/26 02:04:46;;;;;;;6.25;5.63;;;14.50;84.90;;;13.28;100.00;95523.00;5003618;28;20054;-72
2023/07/26 02:07:12;;;;;;;7.95;6.47;;;14.40;84.90;;;13.29;100.00;95521.97;4986801;28;20065;-71
2023/07/26 02:09:37;;;;;;;9.55;5.82;;;14.50;84.90;;;13.29;100.00;95524.63;4986860;28;20517;-71
2023/07/26 02:12:04;;;;;;;8.65;6.78;;;14.50;84.80;;;13.29;100.00;95518.53;4985357;28;20073;-71
2023/07/26 02:14:29;;;;;;;7.97;6.22;;;14.40;84.70;;;13.26;100.00;95534.84;4980894;28;20077;-71
2023/07/26 02:16:55;;;;;;;8.95;5.90;;;14.40;85.00;;;13.25;100.00;95530.56;4967361;28;20181;-71
2023/07/26 02:19:21;;;;;;;6.20;5.60;;;14.50;84.80;;;13.26;100.00;95538.28;4965569;28;20035;-72
2023/07/26 02:21:47;;;;;;;10.55;5.35;;;14.50;84.70;;;13.27;100.00;95537.25;4985301;28;20117;-71
2023/07/26 02:24:12;;;;;;;7.25;6.00;;;14.60;84.70;;;13.27;100.00;95542.53;4970114;28;20030;-72
2023/07/26 02:26:38;;;;;;;6.13;5.53;;;14.60;84.50;;;13.29;100.00;95540.47;4986061;28;20066;-73
2023/07/26 02:29:04;;;;;;;6.78;5.55;;;14.60;84.10;;;13.29;100.00;95542.31;4987355;28;20065;-70
2023/07/26 02:31:30;;;;;;;8.13;5.55;;;14.50;84.60;;;13.26;100.00;95546.19;4966604;28;20109;-69
2023/07/26 02:33:56;;;;;;;6.75;5.30;;;14.40;84.30;;;13.25;100.00;95549.88;4954404;28;20275;-71
2023/07/26 02:36:21;;;;;;;9.23;5.80;;;14.50;84.50;;;13.24;100.00;95550.09;4973767;28;20057;-70
2023/07/26 02:38:47;;;;;;;5.90;5.22;;;14.60;84.50;;;13.24;100.00;95553.53;4985691;28;20081;-71
2023/07/26 02:41:13;;;;;;;11.45;6.13;;;14.50;84.40;;;13.25;100.00;95560.44;5003117;28;20058;-70
2023/07/26 02:43:39;;;;;;;7.82;5.40;;;14.60;84.10;;;13.26;100.00;95553.31;4984843;28;20070;-70
2023/07/26 02:46:04;;;;;;;9.25;5.60;;;14.60;84.20;;;13.26;100.00;95551.47;4986214;28;20124;-71
2023/07/26 02:48:30;;;;;;;9.13;6.00;;;14.60;83.90;;;13.27;100.00;95565.50;4985464;28;20178;-71
2023/07/26 02:50:56;;;;;;;10.10;6.15;;;14.60;83.80;;;13.27;100.00;95568.94;5002796;28;20105;-71
2023/07/26 02:53:22;;;;;;;6.75;5.50;;;14.70;83.80;;;13.27;100.00;95568.94;4985534;28;20042;-70
2023/07/26 02:55:47;;;;;;;7.00;5.30;;;14.60;83.50;;;13.27;100.00;95579.50;4969679;28;20091;-71
2023/07/26 02:58:13;;;;;;;7.28;5.80;;;14.70;83.70;;;13.26;100.00;95577.88;4986509;28;20104;-70
2023/07/26 03:00:39;;;;;;;6.57;5.93;;;14.60;83.40;;;13.22;100.00;95582.00;4968299;28;20073;-70
2023/07/26 03:03:04;;;;;;;7.10;5.47;;;14.50;83.90;;;13.17;100.00;95569.47;4960894;28;20065;-69
2023/07/26 03:05:30;;;;;;;6.65;5.53;;;14.60;84.00;;;13.22;100.00;95576.72;5001172;28;20069;-69
2023/07/26 03:07:56;;;;;;;7.97;6.05;;;14.60;84.00;;;13.23;100.00;95586.25;4970437;28;20045;-70
2023/07/26 03:10:22;;;;;;;7.72;6.25;;;14.60;83.50;;;13.22;100.00;95582.00;4986590;28;20034;-71
2023/07/26 03:12:47;;;;;;;9.25;6.28;;;14.60;83.70;;;13.23;100.00;95582.81;4952825;28;20124;-70
2023/07/26 03:15:13;;;;;;;7.53;6.03;;;14.60;83.60;;;13.20;100.00;95589.34;4987913;28;20465;-71
2023/07/26 03:17:39;;;;;;;7.10;6.25;;;14.60;84.00;;;13.19;100.00;95587.72;4986973;28;20066;-70
2023/07/26 03:20:06;;;;;;;9.27;6.28;;;14.50;84.30;;;13.21;100.00;95590.94;4986405;28;20064;-71
2023/07/26 03:22:31;;;;;;;7.63;6.65;;;14.60;84.40;;;13.21;100.00;95596.22;4970233;28;20093;-70
2023/07/26 03:24:57;;;;;;;7.10;6.10;;;14.60;84.10;;;13.20;100.00;95597.25;4984848;28;20042;-71
2023/07/26 03:27:23;;;;;;;6.68;5.85;;;14.60;84.10;;;13.23;100.00;95602.09;4987467;28;20117;-70
2023/07/26 03:29:49;;;;;;;8.07;6.00;;;14.60;84.00;;;13.24;100.00;95594.97;4983478;28;20039;-70
2023/07/26 03:32:14;;;;;;;9.40;5.85;;;14.60;84.00;;;13.25;100.00;95597.41;4980094;28;20088;-71
2023/07/26 03:34:40;;;;;;;9.38;6.28;;;14.60;84.10;;;13.26;100.00;95598.22;4968488;28;20125;-70
2023/07/26 03:37:07;;;;;;;11.02;7.03;;;14.60;83.60;;;13.26;100.00;95600.84;4986052;28;20034;-70
2023/07/26 03:39:33;;;;;;;9.27;5.68;;;14.60;84.00;;;13.24;100.00;95600.28;4985702;28;20034;-70
2023/07/26 03:42:00;;;;;;;7.13;6.03;;;14.60;83.50;;;13.23;100.00;95610.03;4967871;28;20049;-71
2023/07/26 03:44:26;;;;;;;9.27;6.65;;;14.50;83.60;;;13.22;100.00;95615.53;4982731;28;20105;-70
2023/07/26 03:46:51;;;;;;;7.55;6.70;;;14.50;83.80;;;13.20;100.00;95621.03;4987194;28;20577;-72
2023/07/26 03:49:17;;;;;;;7.95;5.88;;;14.50;84.30;;;13.16;100.00;95619.81;4952647;28;20487;-70
2023/07/26 03:51:43;;;;;;;8.50;6.50;;;14.40;84.10;;;13.14;100.00;95619.22;4966442;28;20417;-70
2023/07/26 03:54:09;;;;;;;7.07;5.68;;;14.40;84.10;;;13.11;100.00;95627.56;4984723;28;20146;-70
2023/07/26 03:56:34;;;;;;;9.68;6.50;;;14.30;84.20;;;13.11;100.00;95624.91;4986229;28;20023;-71
2023/07/26 03:59:02;;;;;;;9.88;7.22;;;14.40;84.10;;;13.09;100.00;95629.59;4985507;28;20054;-71
2023/07/26 04:01:28;;;;;;;9.50;6.72;;;14.30;84.10;;;13.10;100.00;95636.50;4984129;28;20050;-67
2023/07/26 04:03:54;;;;;;;8.60;6.53;;;14.40;84.30;;;13.10;100.00;95631.22;4963039;28;20124;-70
2023/07/26 04:06:20;;;;;;;7.78;6.07;;;14.40;84.10;;;13.09;100.00;95637.53;4985824;28;20671;-70
2023/07/26 04:08:46;;;;;;;10.15;6.22;;;14.40;84.30;;;13.08;100.00;95639.38;4966512;28;20545;-71
2023/07/26 04:11:12;;;;;;;9.18;6.82;;;14.30;84.10;;;13.06;100.00;95637.97;4951480;28;20035;-71
2023/07/26 04:13:37;;;;;;;7.78;6.82;;;14.30;84.40;;;13.05;100.00;95641.63;4951876;28;20545;-71
2023/07/26 04:16:17;;;;;;;7.00;6.13;;;14.30;84.20;;;13.03;100.00;95646.31;4985476;28;20090;-71
2023/07/26 04:18:42;;;;;;;7.90;6.13;;;14.30;84.00;;;13.02;100.00;95637.59;4964946;28;20039;-71
2023/07/26 04:21:17;;;;;;;11.68;6.30;;;14.40;83.90;;;13.02;100.00;95644.69;4984006;28;20542;-70
2023/07/26 04:23:43;;;;;;;9.18;5.80;;;14.40;83.60;;;13.02;100.00;95644.69;4985550;28;20459;-71
2023/07/26 04:26:09;;;;;;;8.93;6.05;;;14.40;83.40;;;13.03;100.00;95652.41;4982857;28;20728;-72
2023/07/26 04:28:37;;;;;;;7.78;6.40;;;14.50;83.50;;;13.05;100.00;95647.72;4987111;28;20049;-71
2023/07/26 04:31:03;;;;;;;7.70;6.38;;;14.40;83.60;;;13.05;100.00;95644.28;4968940;28;20044;-72
2023/07/26 04:33:29;;;;;;;10.02;6.47;;;14.40;83.60;;;13.06;100.00;95651.16;4964492;28;20521;-67
2023/07/26 04:35:54;;;;;;;7.45;6.50;;;14.50;83.80;;;13.07;100.00;95652.78;4967781;28;20037;-69
2023/07/26 04:38:21;;;;;;;7.97;6.03;;;14.60;83.70;;;13.08;100.00;95649.13;4968108;28;20130;-70
2023/07/26 04:40:47;;;;;;;7.05;6.13;;;14.60;83.40;;;13.11;100.00;95659.25;4962274;28;20530;-72
2023/07/26 04:43:19;;;;;;;10.55;7.07;;;14.60;83.20;;;13.15;100.00;95655.97;4986452;28;20066;-69
2023/07/26 04:45:47;;;;;;;9.77;7.10;;;14.70;83.10;;;13.16;100.00;95662.88;4999387;28;20023;-72
2023/07/26 04:48:13;;;;;;;10.32;7.80;;;14.60;83.10;;;13.15;100.00;95658.63;4968899;28;20035;-71
2023/07/26 04:50:39;;;;;;;10.68;7.75;;;14.60;83.40;;;13.19;100.00;95664.31;4983024;28;20037;-71
2023/07/26 04:53:05;;;;;;;14.15;8.75;;;14.60;83.30;;;13.23;100.00;95657.56;4972077;28;20043;-72
2023/07/26 04:55:31;;;;;;;11.60;8.73;;;14.60;83.40;;;13.27;100.00;95665.84;4968220;28;20114;-72
2023/07/26 04:57:56;;;;;;;10.70;9.50;;;14.70;83.20;;;13.29;100.00;95661.97;4987309;28;20582;-71
2023/07/26 05:00:22;;;;;;;12.63;9.07;;;14.80;83.00;;;13.32;100.00;95666.81;4982502;28;20034;-72
2023/07/26 05:02:48;;;;;;;14.18;9.80;;;14.80;83.40;;;13.33;100.00;95668.44;4979355;28;20041;-71
2023/07/26 05:05:14;;;;;;;11.25;10.13;;;14.90;83.50;;;13.39;100.00;95667.59;4985550;28;20105;-71
2023/07/26 05:07:39;;;;;;;13.45;10.82;;;14.80;82.70;;;13.39;100.00;95672.88;4983125;28;20090;-71
2023/07/26 05:10:06;;;;;;;13.23;11.13;;;14.80;83.10;;;13.42;100.00;95683.00;4970714;28;20081;-71
2023/07/26 05:12:32;;;;;;;14.45;11.35;;;14.80;83.00;;;13.43;100.00;95689.91;4956281;28;20061;-73
2023/07/26 05:14:57;;;;;;;12.27;11.05;;;14.80;83.30;;;13.44;100.00;95685.44;4967014;28;20038;-73
2023/07/26 05:17:23;;;;;;;14.95;11.85;;;14.80;83.20;;;13.45;100.00;95692.31;4961493;28;20023;-72
2023/07/26 05:19:49;;;;;;;13.38;11.90;;;14.80;82.90;;;13.49;100.00;95698.78;4985937;28;20038;-72
2023/07/26 05:22:14;;;;;;;13.32;11.68;;;15.00;82.80;;;13.56;100.00;95694.25;4982090;28;20065;-71
2023/07/26 05:24:40;;;;;;;12.38;11.00;;;15.10;82.60;;;13.61;100.00;95696.25;4968165;28;20423;-73
2023/07/26 05:27:06;;;;;;;15.02;12.10;;;15.10;81.90;;;13.63;100.00;95694.22;4980306;28;20034;-71
2023/07/26 05:29:32;;;;;;;14.45;11.82;;;15.10;81.50;;;13.67;100.00;95700.66;4954005;28;20049;-73
2023/07/26 05:31:58;;;;;;;17.05;12.98;;;15.10;81.40;;;13.70;100.00;95700.22;4962119;28;20058;-72
2023/07/26 05:34:23;;;;;;;15.15;12.32;;;15.10;81.90;;;13.72;100.00;95700.81;4986243;28;20046;-72
2023/07/26 05:36:51;;;;;;;13.40;12.05;;;15.10;81.70;;;13.78;100.00;95713.16;4962572;28;20082;-73
2023/07/26 05:39:17;;;;;;;14.10;12.60;;;15.30;81.40;;;13.82;100.00;95718.84;4984086;28;20031;-72
2023/07/26 05:41:43;;;;;;;13.07;11.73;;;15.30;81.50;;;13.83;100.00;95720.47;4979894;28;20035;-72
2023/07/26 05:44:09;;;;;;;14.55;12.88;;;15.20;81.20;;;13.81;100.00;95719.88;4985973;28;21053;-72
2023/07/26 05:46:35;;;;;;;14.13;12.57;;;15.20;81.30;;;13.83;100.00;95723.91;4952518;28;20121;-71
2023/07/26 05:49:01;;;;;;;14.50;13.05;;;15.20;81.20;;;13.81;100.00;95728.59;4985450;28;20253;-71
2023/07/26 05:51:27;;;;;;;16.92;12.43;;;15.10;81.40;;;13.79;100.00;95723.50;4950814;28;20750;-72
2023/07/26 05:53:52;;;;;;;18.33;12.98;;;15.10;81.50;;;13.76;100.00;95726.59;4963159;28;20479;-72
2023/07/26 05:56:18;;;;;;;17.42;14.02;;;15.10;81.40;;;13.73;100.00;95734.16;4981777;28;20052;-70
2023/07/26 05:58:44;;;;;;;16.27;12.88;;;15.00;81.90;;;13.74;100.00;95733.94;4981810;28;20512;-70
2023/07/26 06:01:09;;;;;;;15.85;13.57;;;15.10;81.80;;;13.75;100.00;95729.47;4984313;28;20035;-71
2023/07/26 06:03:35;;;;;;;15.10;13.50;;;15.10;81.60;;;13.70;100.00;95735.41;4987414;28;20109;-70
2023/07/26 06:06:01;;;;;;;16.42;13.20;;;15.10;81.60;;;13.73;100.00;95742.09;4983518;28;20042;-70
2023/07/26 06:08:27;;;;;;;14.60;13.10;;;15.10;81.50;;;13.75;100.00;95734.75;4961081;28;20109;-71
2023/07/26 06:10:52;;;;;;;15.63;13.23;;;15.20;81.50;;;13.78;100.00;95739.59;4969122;28;20085;-72
2023/07/26 06:13:18;;;;;;;15.02;13.43;;;15.20;81.20;;;13.82;100.00;95740.00;4977040;28;20043;-70
2023/07/26 06:15:44;;;;;;;16.27;13.98;;;15.20;81.00;;;13.84;100.00;95748.50;4967918;28;20031;-73
2023/07/26 06:18:10;;;;;;;16.10;14.13;;;15.40;80.70;;;13.87;100.00;95740.94;4953534;28;20213;-70
2023/07/26 06:20:36;;;;;;;17.15;14.85;;;15.40;80.20;;;13.89;100.00;95749.47;4983030;28;20078;-71
2023/07/26 06:23:01;;;;;;;15.60;14.05;;;15.40;80.40;;;13.96;100.00;95752.84;4970899;28;20058;-72
2023/07/26 06:25:27;;;;;;;15.10;13.48;;;15.50;80.60;;;14.02;100.00;95751.97;4952175;28;20057;-71
2023/07/26 06:27:53;;;;;;;16.85;14.38;;;15.60;80.10;;;14.12;100.00;95750.66;4961697;28;20075;-72
2023/07/26 06:30:19;;;;;;;23.75;21.27;;;15.60;79.70;;;14.18;100.00;95752.44;4983699;28;20509;-69
2023/07/26 06:32:44;;;;;;;26.20;22.95;;;15.80;79.50;;;14.22;100.00;95753.59;4979363;28;20035;-66
2023/07/26 06:35:10;;;;;;;19.35;15.73;;;16.00;79.50;;;14.27;100.00;95759.06;4966317;28;20470;-68
2023/07/26 06:37:36;;;;;;;19.05;14.93;;;15.80;79.20;;;14.34;100.00;95759.78;4948302;28;20027;-69
2023/07/26 06:40:02;;;;;;;23.65;21.15;;;15.90;78.80;;;14.37;100.00;95754.06;4986846;28;20060;-69
2023/07/26 06:42:28;;;;;;;26.20;20.92;;;16.00;78.50;;;14.40;100.00;95758.91;4995287;28;20046;-72
2023/07/26 06:44:54;;;;;;;18.50;14.93;;;15.90;78.00;;;14.42;100.00;95762.13;5010147;28;20149;-71
2023/07/26 06:47:20;;;;;;;16.10;13.93;;;16.00;78.20;;;14.41;100.00;95760.53;5005856;28;20090;-73
2023/07/26 06:49:45;;;;;;;17.13;14.32;;;15.90;78.10;;;14.40;100.00;95759.72;5007730;28;20081;-73
2023/07/26 06:52:11;;;;;;;15.90;14.30;;;15.80;77.30;;;14.40;100.00;95770.28;4981253;28;20050;-72
2023/07/26 06:54:37;;;;;;;16.25;13.88;;;15.80;78.50;;;14.42;100.00;95767.44;4986869;28;20121;-73
2023/07/26 06:57:03;;;;;;;15.80;14.05;;;15.90;78.60;;;14.44;100.00;95762.75;4988222;28;20042;-71
2023/07/26 06:59:29;;;;;;;14.15;12.75;;;16.00;78.30;;;14.47;100.00;95775.53;4981310;28;20038;-72
2023/07/26 07:01:55;;;;;;;15.50;13.57;;;15.90;77.90;;;14.47;100.00;95780.84;4970491;28;20030;-72
2023/07/26 07:04:20;;;;;;;14.50;13.05;;;15.90;78.00;;;14.48;100.00;95777.16;4981729;28;20302;-71
2023/07/26 07:06:46;;;;;;;15.05;12.52;;;16.00;78.30;;;14.49;100.00;95778.00;4970358;28;20053;-71
2023/07/26 07:09:12;;;;;;;16.05;13.82;;;15.90;77.80;;;14.51;100.00;95781.22;4972127;28;20113;-71
2023/07/26 07:11:38;;;;;;;14.63;13.10;;;16.00;78.30;;;14.52;100.00;95783.66;4970823;28;20506;-73
2023/07/26 07:14:04;;;;;;;15.75;12.63;;;16.00;78.20;;;14.51;100.00;95784.69;4967079;28;20026;-71
2023/07/26 07:16:30;;;;;;;14.30;12.52;;;15.80;77.70;;;14.50;100.00;95785.72;4962929;28;20538;-71
2023/07/26 07:18:56;;;;;;;13.27;11.95;;;15.90;77.90;;;14.51;100.00;95787.31;4984062;28;20030;-71
2023/07/26 07:21:21;;;;;;;15.63;11.90;;;15.90;77.30;;;14.58;100.00;95784.59;4982788;28;20038;-71
2023/07/26 07:23:47;;;;;;;17.17;13.35;;;16.10;77.30;;;14.64;100.00;95791.63;4986111;28;20133;-73
2023/07/26 07:26:13;;;;;;;14.20;12.38;;;16.20;76.70;;;14.73;100.00;95784.22;4968090;28;20035;-72
2023/07/26 07:28:39;;;;;;;15.50;10.93;;;16.40;76.80;;;14.74;100.00;95791.94;4983943;28;20023;-72
2023/07/26 07:31:06;;;;;;;14.85;11.13;;;16.30;75.20;;;14.78;100.00;95777.22;4984619;28;20536;-71
2023/07/26 07:33:32;;;;;;;11.80;10.45;;;16.40;75.60;;;14.84;100.00;95786.91;4968789;28;20562;-71
2023/07/26 07:35:57;;;;;;;13.30;10.48;;;16.50;75.30;;;14.97;100.00;95786.75;4985849;28;20104;-73
2023/07/26 07:38:23;;;;;;;11.80;9.38;;;16.80;74.60;;;15.07;100.00;95775.63;4981983;28;20525;-72
2023/07/26 07:40:49;;;;;;;10.73;9.63;;;16.90;73.10;;;15.17;100.00;95780.38;4952819;28;20065;-71
2023/07/26 07:43:15;;;;;;;11.15;9.57;;;17.00;73.20;;;15.24;100.00;95779.25;4963950;28;20072;-71
2023/07/26 07:45:41;;;;;;;12.40;8.65;;;16.90;73.20;;;15.26;100.00;95785.13;4968466;28;20097;-72
2023/07/26 07:48:07;;;;;;;10.88;9.25;;;16.90;73.90;;;15.32;100.00;95786.88;4968182;28;20366;-71
2023/07/26 07:50:32;;;;;;;13.75;8.75;;;17.00;72.80;;;15.37;100.00;95790.69;4968857;28;20030;-71
2023/07/26 07:52:58;;;;;;;10.70;8.65;;;17.10;72.60;;;15.41;100.00;95786.56;4966667;28;20033;-72
2023/07/26 07:55:24;;;;;;;9.05;7.75;;;17.10;72.40;;;15.45;100.00;95785.06;4975465;28;20031;-73
2023/07/26 07:57:49;;;;;;;8.77;7.88;;;17.10;72.70;;;15.47;100.00;95785.66;4969768;28;20038;-70
2023/07/26 08:00:18;;;;;;;9.18;7.72;;;17.10;72.00;;;15.50;100.00;95795.81;4985322;28;20050;-71
2023/07/26 08:02:44;;;;;;;10.85;8.02;;;17.10;72.20;;;15.56;100.00;95789.59;4983240;28;20102;-70
2023/07/26 08:05:10;;;;;;;9.82;7.63;;;17.30;71.80;;;15.55;100.00;95798.56;4982940;28;20125;-71
2023/07/26 08:07:38;;;;;;;9.65;7.45;;;17.20;72.10;;;15.53;100.00;95798.00;4966880;28;20042;-71
2023/07/26 08:10:04;;;;;;;8.68;7.28;;;17.10;71.80;;;15.53;100.00;95793.50;4983597;28;20058;-72
2023/07/26 08:12:34;;;;;;;8.82;6.93;;;17.00;71.40;;;15.53;100.00;95795.34;4967030;28;20035;-70
2023/07/26 08:15:00;;;;;;;9.40;6.78;;;17.10;70.90;;;15.47;100.00;95802.38;4969766;28;20035;-71
2023/07/26 08:17:26;;;;;;;10.35;6.78;;;17.00;71.20;;;15.48;100.00;95803.97;4983157;28;20069;-71
2023/07/26 08:19:52;;;;;;;7.18;6.30;;;17.10;70.80;;;15.47;100.00;95797.06;4967877;28;20143;-72
2023/07/26 08:22:17;;;;;;;10.13;6.28;;;17.10;70.90;;;15.55;100.00;95798.56;4985482;28;20034;-72
2023/07/26 08:24:43;;;;;;;11.00;6.28;;;17.40;71.20;;;15.64;100.00;95797.25;4985903;28;20350;-71
2023/07/26 08:27:09;;;;;;;10.60;5.80;;;17.40;70.60;;;15.70;100.00;95790.22;4968302;28;20050;-72
2023/07/26 08:29:34;;;;;;;7.80;5.38;;;17.40;70.40;;;15.69;100.00;95794.72;4966613;28;20118;-73
2023/07/26 08:32:00;;;;;;;9.30;5.47;;;17.20;70.50;;;15.68;100.00;95793.13;4965142;28;20045;-70
2023/07/26 08:34:26;;;;;;;9.20;4.97;;;17.30;69.90;;;15.71;100.00;95791.84;4976886;28;20125;-71
2023/07/26 08:36:52;;;;;;;9.70;4.43;;;17.40;70.20;;;15.83;100.00;95803.25;4968041;28;20030;-71
2023/07/26 08:39:17;;;;;;;6.45;4.55;;;17.70;69.70;;;15.95;100.00;95792.69;4959527;28;20031;-72
2023/07/26 08:41:43;;;;;;;7.43;5.15;;;17.90;69.00;;;16.07;98.98;95790.81;4966406;28;20043;-72
2023/07/26 08:44:09;;;;;;;6.25;4.38;;;18.10;67.60;;;16.15;98.45;95796.59;4977127;28;20495;-72
2023/07/26 08:46:38;;;;;;;7.82;4.60;;;18.20;67.30;;;16.32;98.14;95798.56;4949685;28;20034;-71
2023/07/26 08:49:04;;;;;;;5.40;4.35;;;18.50;66.80;;;16.43;97.12;95795.88;4962976;28;20035;-72
2023/07/26 08:51:29;;;;;;;6.78;4.57;;;18.70;65.40;;;16.60;96.25;95797.84;4966082;28;20902;-71
2023/07/26 08:53:55;;;;;;;6.05;4.25;;;18.90;65.00;;;16.85;94.78;95793.06;4981946;28;20521;-71
2023/07/26 08:56:21;;;;;;;6.38;3.72;;;19.20;62.80;;;17.01;94.25;95792.34;4966706;28;20061;-72
2023/07/26 08:58:47;;;;;;;7.97;4.05;;;19.30;63.40;;;17.15;91.94;95793.66;4969537;28;20031;-71
2023/07/26 09:01:12;;;;;;;5.57;3.55;;;19.40;62.20;;;17.28;92.47;95794.41;4985390;28;20121;-72
2023/07/26 09:03:38;;;;;;;5.50;3.60;;;19.60;62.60;;;17.40;90.68;95798.63;4980732;28;20117;-72
2023/07/26 09:06:08;;;;;;;6.72;3.70;;;19.70;61.30;;;17.52;87.61;95789.78;4952984;28;20042;-69
2023/07/26 09:08:34;;;;;;;5.53;3.50;;;19.70;60.50;;;17.64;87.19;95799.31;4961305;28;20092;-69
2023/07/26 09:11:03;;;;;;;9.32;3.70;;;20.00;59.20;;;17.72;86.68;95795.50;4984727;28;20664;-71
2023/07/26 09:13:28;;;;;;;6.65;3.38;;;19.90;60.40;;;17.78;85.45;95791.84;4962560;28;20129;-68
2023/07/26 09:15:54;;;;;;;7.15;3.92;;;19.80;58.80;;;17.93;84.10;95799.28;4966108;28;20034;-71
2023/07/26 09:18:20;;;;;;;6.78;3.40;;;20.30;59.00;;;18.10;83.22;95789.41;4994513;28;20041;-71
2023/07/26 09:20:46;;;;;;;5.65;3.45;;;20.40;57.80;;;18.21;82.98;95791.19;4977007;28;20704;-72
2023/07/26 09:23:12;;;;;;;5.07;3.00;;;20.60;57.70;;;18.31;82.44;95791.31;4961710;28;20086;-71
2023/07/26 09:25:44;;;;;;;7.80;3.30;;;20.60;57.10;;;18.40;78.22;95764.31;4966922;28;20027;-71
2023/07/26 09:28:12;;;;;;;4.82;3.10;;;20.60;56.50;;;18.49;80.30;95787.59;4984149;28;20094;-70
2023/07/26 09:30:41;;;;;;;5.05;3.00;;;20.80;57.00;;;18.61;78.20;95774.16;4976854;28;20027;-69
2023/07/26 09:33:08;;;;;;;5.25;2.58;;;21.10;55.30;;;18.89;79.87;95787.34;4981146;28;20828;-68
2023/07/26 09:35:48;;;;;;;5.55;2.95;;;22.10;54.80;;;19.31;72.88;95752.06;4943035;28;20031;-69
2023/07/26 09:38:16;;;;;;;5.03;2.95;;;22.60;50.40;;;19.50;75.75;95771.19;4971370;28;20128;-71
2023/07/26 09:40:42;;;;;;;4.85;2.42;;;22.60;51.20;;;19.84;75.15;95771.75;4951547;28;20062;-71
2023/07/26 09:43:08;;;;;;;5.82;2.33;;;23.50;49.00;;;20.33;72.76;95771.56;4982612;28;20058;-70
2023/07/26 09:45:34;;;;;;;4.85;2.50;;;24.10;47.00;;;20.70;71.09;95758.97;4947632;28;20035;-70
2023/07/26 09:48:10;;;;;;;5.63;2.35;;;24.40;45.30;;;21.06;65.39;95725.16;4950201;28;20031;-70
2023/07/26 09:50:37;;;;;;;3.90;2.08;;;24.60;45.30;;;21.37;67.22;95742.09;4948251;28;20524;-70
2023/07/26 09:53:04;;;;;;;3.97;1.88;;;25.00;42.30;;;21.60;65.56;95726.59;4961006;28;20073;-72
2023/07/26 09:55:30;;;;;;;6.68;1.92;;;24.80;43.60;;;21.72;66.07;95743.16;4979397;28;20041;-71
2023/07/26 09:57:56;;;;;;;3.72;1.50;;;24.90;45.20;;;21.91;64.04;95730.03;4955190;28;20359;-70
2023/07/26 10:00:23;;;;;;;3.50;1.65;;;24.90;42.70;;;21.90;62.27;95729.25;4971415;28;20426;-72
2023/07/26 10:02:56;;;;;;;4.53;1.63;;;24.90;42.40;;;22.11;57.70;95686.38;4970436;28;20094;-70
2023/07/26 10:05:23;;;;;;;4.82;2.03;;;25.30;41.50;;;22.42;61.50;95714.72;4964862;28;20043;-73
2023/07/26 10:07:50;;;;;;;4.88;1.90;;;26.20;41.30;;;22.68;60.76;95711.94;4968398;28;20058;-70